Time;durP1;ratioP1;P1;durP2;ratioP2;P2;SDS_P1;SDS_P2;PMS_P1;PMS_P2;Temp;Humidity;BMP_temperature;BMP_pressure;BME280_temperature;BME280_humidity;BME280_pressure;Samples;Min_cycle;Max_cycle;Signal;HPM_P1;HPM_P2
2021/11/14 00:01:45;;;;;;;102.47;53.05;;;;;;;5.29;90.37;100994.77;1663474;84;25857;-83
2021/11/14 00:04:13;;;;;;;95.55;48.83;;;;;;;5.30;90.41;100992.95;1649320;85;25962;-84
2021/11/14 00:06:43;;;;;;;95.38;48.80;;;;;;;5.31;90.55;100989.30;1646022;86;28446;-83
2021/11/14 00:09:12;;;;;;;112.50;51.50;;;;;;;5.29;90.37;100989.45;1667383;84;26011;-84
2021/11/14 00:11:40;;;;;;;104.00;51.28;;;;;;;5.32;90.50;100994.97;1660005;86;25429;-83
2021/11/14 00:14:07;;;;;;;107.40;51.65;;;;;;;5.32;90.52;100995.79;1656486;84;25924;-83
2021/11/14 00:16:34;;;;;;;112.62;51.73;;;;;;;5.34;90.61;101000.50;1634896;84;25842;-84
2021/11/14 00:19:02;;;;;;;103.42;49.38;;;;;;;5.36;90.70;101001.67;1639621;86;27499;-83
2021/11/14 00:21:31;;;;;;;107.85;52.95;;;;;;;5.37;90.72;101005.98;1662751;85;26494;-83
2021/11/14 00:23:58;;;;;;;112.32;53.90;;;;;;;5.38;90.85;101003.70;1632128;86;25397;-83
2021/11/14 00:26:25;;;;;;;131.18;58.25;;;;;;;5.41;90.87;101004.72;1591397;86;25834;-84
2021/11/14 00:28:53;;;;;;;122.65;56.42;;;;;;;5.43;90.99;100997.47;1595049;85;26563;-84
2021/11/14 00:31:22;;;;;;;123.30;52.50;;;;;;;5.44;91.10;101002.63;1644337;85;28246;-83
2021/11/14 00:33:50;;;;;;;129.07;57.10;;;;;;;5.47;91.16;101002.84;1656063;85;25987;-84
2021/11/14 00:36:24;;;;;;;130.03;58.48;;;;;;;5.50;91.25;101001.20;1588577;87;25930;-85
2021/11/14 00:38:52;;;;;;;134.82;60.08;;;;;;;5.52;91.27;101007.20;1633817;86;25803;-83
2021/11/14 00:41:21;;;;;;;139.28;61.18;;;;;;;5.52;91.27;101010.37;1678977;84;25789;-84
2021/11/14 00:43:50;;;;;;;152.00;64.45;;;;;;;5.55;91.35;101011.41;1672414;84;27404;-84
2021/11/14 00:46:18;;;;;;;116.62;56.68;;;;;;;5.58;91.39;101019.09;1618730;86;25414;-85
2021/11/14 00:48:47;;;;;;;129.93;54.85;;;;;;;5.58;91.36;101011.94;1623222;86;25891;-84
2021/11/14 00:51:24;;;;;;;124.12;54.73;;;;;;;5.60;91.31;101011.81;1639821;86;25920;-84
2021/11/14 00:53:48;;;;;;;123.28;54.53;;;;;;;5.59;91.28;101014.11;1658573;85;25894;-84
2021/11/14 00:56:15;;;;;;;123.53;54.42;;;;;;;5.60;91.33;101011.81;1599527;85;27474;-84
2021/11/14 00:58:42;;;;;;;128.75;55.60;;;;;;;5.59;91.37;101016.28;1636193;86;25855;-83
2021/11/14 01:01:09;;;;;;;124.02;56.83;;;;;;;5.60;91.36;101017.98;1659720;86;25902;-84
2021/11/14 01:03:36;;;;;;;109.15;50.88;;;;;;;5.61;91.42;101016.98;1654639;85;26396;-83
2021/11/14 01:06:03;;;;;;;119.87;56.45;;;;;;;5.60;91.32;101015.31;1575643;86;25894;-84
2021/11/14 01:08:30;;;;;;;122.67;53.38;;;;;;;5.60;91.33;101020.64;1621473;85;27525;-84
2021/11/14 01:11:02;;;;;;;123.72;55.28;;;;;;;5.60;91.39;101019.30;1659477;86;26764;-84
2021/11/14 01:13:31;;;;;;;128.40;53.78;;;;;;;5.62;91.47;101015.16;1654185;85;25831;-84
2021/11/14 01:15:59;;;;;;;141.77;53.65;;;;;;;5.63;91.48;101017.67;1619621;85;25996;-84
2021/11/14 01:18:26;;;;;;;111.22;51.60;;;;;;;5.62;91.40;101022.66;1623379;86;25852;-83
2021/11/14 01:20:58;;;;;;;122.42;54.40;;;;;;;5.61;91.41;101020.96;1641756;86;27647;-84
2021/11/14 01:23:26;;;;;;;132.70;53.05;;;;;;;5.61;91.48;101022.30;1650669;86;25819;-83
2021/11/14 01:25:53;;;;;;;135.82;56.13;;;;;;;5.62;91.51;101019.16;1617438;86;25995;-83
2021/11/14 01:28:20;;;;;;;122.15;57.45;;;;;;;5.62;91.54;101010.70;1641200;85;25890;-84
2021/11/14 01:30:55;;;;;;;119.22;54.83;;;;;;;5.62;91.50;101020.48;1662915;85;25934;-84
2021/11/14 01:33:26;;;;;;;116.70;52.58;;;;;;;5.62;91.58;101016.50;1655291;85;28221;-84
2021/11/14 01:35:56;;;;;;;119.47;53.85;;;;;;;5.61;91.58;101020.96;1634989;86;25813;-84
2021/11/14 01:38:26;;;;;;;116.67;53.45;;;;;;;5.59;91.61;101020.27;1658941;86;25787;-84
2021/11/14 01:41:00;;;;;;;126.27;53.67;;;;;;;5.59;91.64;101026.07;1659944;86;26528;-84
2021/11/14 01:43:33;;;;;;;113.55;52.30;;;;;;;5.60;91.76;101028.61;1662047;85;25940;-84
2021/11/14 01:46:00;;;;;;;109.57;50.73;;;;;;;5.60;91.73;101024.62;1614043;86;28275;-84
2021/11/14 01:48:28;;;;;;;114.05;51.33;;;;;;;5.59;91.86;101023.41;1628677;86;25855;-83
2021/11/14 01:50:55;;;;;;;113.92;54.23;;;;;;;5.59;91.94;101014.95;1655087;85;26454;-83
2021/11/14 01:53:24;;;;;;;121.47;52.45;;;;;;;5.61;91.96;101018.30;1631956;85;25743;-84
2021/11/14 01:55:53;;;;;;;117.37;52.45;;;;;;;5.63;92.00;101023.47;1618186;85;25959;-84
2021/11/14 01:58:25;;;;;;;134.07;54.18;;;;;;;5.64;92.04;101023.34;1628929;86;27573;-83
2021/11/14 02:01:08;;;;;;;131.45;52.67;;;;;;;5.63;92.03;101016.34;1666623;85;25842;-84
2021/11/14 02:03:37;;;;;;;134.65;51.33;;;;;;;5.64;92.05;101022.50;1664042;85;25841;-83
2021/11/14 02:06:07;;;;;;;123.25;51.58;;;;;;;5.63;92.05;101036.27;1629948;86;25795;-84
2021/11/14 02:08:40;;;;;;;114.00;51.65;;;;;;;5.61;92.00;101034.25;1660052;86;25832;-83
2021/11/14 02:11:09;;;;;;;122.55;53.38;;;;;;;5.59;92.08;101032.72;1664561;86;27595;-83
2021/11/14 02:13:36;;;;;;;115.55;47.95;;;;;;;5.57;92.13;101029.36;1605453;86;26504;-82
2021/11/14 02:16:04;;;;;;;109.57;48.02;;;;;;;5.56;92.21;101033.84;1611593;86;26191;-84
2021/11/14 02:18:31;;;;;;;110.10;44.67;;;;;;;5.54;92.28;101037.13;1664818;85;25910;-83
2021/11/14 02:20:59;;;;;;;111.40;48.70;;;;;;;5.51;92.33;101034.78;1643628;85;25944;-84
2021/11/14 02:23:26;;;;;;;111.17;48.73;;;;;;;5.51;92.49;101031.27;1626443;87;27524;-83
2021/11/14 02:25:54;;;;;;;105.80;47.60;;;;;;;5.52;92.56;101031.64;1615740;86;26719;-84
2021/11/14 02:28:23;;;;;;;103.83;44.98;;;;;;;5.53;92.58;101034.63;1661697;86;25886;-84
2021/11/14 02:30:54;;;;;;;104.35;45.48;;;;;;;5.51;92.46;101041.42;1662403;86;25997;-83
2021/11/14 02:33:22;;;;;;;;;;;;;;;5.47;92.50;101042.69;1631816;86;25387;-83
2021/11/14 02:35:54;;;;;;;82.22;38.28;;;;;;;5.45;92.63;101045.98;1667150;84;27386;-84
2021/11/14 02:38:21;;;;;;;91.67;41.08;;;;;;;5.42;92.58;101051.57;1663643;86;25878;-84
2021/11/14 02:40:50;;;;;;;101.00;44.58;;;;;;;5.43;92.70;101055.91;1636292;86;25421;-84
2021/11/14 02:43:20;;;;;;;94.55;43.78;;;;;;;5.43;92.76;101053.26;1627498;84;25900;-83
2021/11/14 02:45:47;;;;;;;91.45;42.80;;;;;;;5.40;92.78;101053.53;1625768;84;26132;-83
2021/11/14 02:48:16;;;;;;;100.55;45.52;;;;;;;5.41;92.92;101059.17;1678885;84;27628;-84
2021/11/14 02:50:47;;;;;;;100.35;43.80;;;;;;;5.41;93.00;101056.52;1629089;85;25938;-83
2021/11/14 02:53:14;;;;;;;95.57;42.53;;;;;;;5.44;93.04;101061.08;1657144;85;26560;-84
2021/11/14 02:55:44;;;;;;;90.35;40.45;;;;;;;5.47;93.00;101067.93;1609514;86;26668;-83
2021/11/14 02:58:11;;;;;;;98.65;43.00;;;;;;;5.49;93.08;101065.45;1660676;85;26623;-83
2021/11/14 03:00:44;;;;;;;89.32;41.88;;;;;;;5.49;92.97;101071.28;1628127;86;27483;-83
2021/11/14 03:03:11;;;;;;;89.35;42.50;;;;;;;5.48;92.96;101077.08;1663958;85;25295;-84
2021/11/14 03:05:40;;;;;;;86.37;41.73;;;;;;;5.45;92.92;101075.20;1614888;86;25977;-84
2021/11/14 03:08:07;;;;;;;97.62;44.38;;;;;;;5.46;93.04;101082.18;1662518;85;25892;-82
2021/11/14 03:10:35;;;;;;;87.33;41.58;;;;;;;5.48;93.05;101084.20;1668041;85;26007;-84
2021/11/14 03:13:07;;;;;;;89.92;40.65;;;;;;;5.51;92.97;101082.60;1620291;85;27507;-83
2021/11/14 03:15:39;;;;;;;90.30;38.73;;;;;;;5.51;92.86;101086.59;1630378;86;25775;-84
2021/11/14 03:18:06;;;;;;;80.42;38.92;;;;;;;5.48;92.75;101078.89;1654172;86;26002;-84
2021/11/14 03:20:38;;;;;;;92.65;41.80;;;;;;;5.42;92.77;101080.30;1653228;85;25990;-84
2021/11/14 03:23:06;;;;;;;93.20;43.60;;;;;;;5.45;92.99;101084.50;1679477;84;25924;-83
2021/11/14 03:25:33;;;;;;;92.82;43.05;;;;;;;5.45;93.04;101086.65;1613498;85;27611;-84
2021/11/14 03:28:01;;;;;;;91.45;42.75;;;;;;;5.46;93.03;101087.02;1670276;85;26561;-84
2021/11/14 03:30:32;;;;;;;90.62;40.73;;;;;;;5.47;93.08;101090.00;1624802;84;26544;-84
2021/11/14 03:33:01;;;;;;;80.55;39.45;;;;;;;5.47;93.10;101086.02;1635032;84;26597;-84
2021/11/14 03:35:50;;;;;;;88.17;39.92;;;;;;;5.46;93.04;101084.35;1628817;84;26524;-84
2021/11/14 03:38:21;;;;;;;87.50;39.03;;;;;;;5.47;93.11;101086.02;1675327;84;27569;-83
2021/11/14 03:40:48;;;;;;;90.42;41.02;;;;;;;5.42;93.02;101084.30;1645002;84;26025;-85
2021/11/14 03:43:16;;;;;;;91.60;40.85;;;;;;;5.42;93.08;101090.94;1647329;85;25867;-84
2021/11/14 03:45:44;;;;;;;85.03;40.90;;;;;;;5.41;93.10;101091.05;1648207;85;26236;-83
2021/11/14 03:48:11;;;;;;;89.17;41.68;;;;;;;5.38;93.12;101093.53;1657113;85;26522;-84
2021/11/14 03:50:39;;;;;;;95.90;43.38;;;;;;;5.37;93.20;101089.18;1631684;86;27470;-83
2021/11/14 03:53:08;;;;;;;93.05;40.28;;;;;;;5.38;93.34;101086.05;1654486;86;25813;-84
2021/11/14 03:55:36;;;;;;;87.12;40.75;;;;;;;5.38;93.43;101090.87;1617852;86;25411;-84
2021/11/14 03:58:05;;;;;;;86.85;41.18;;;;;;;5.40;93.47;101098.69;1628822;86;25920;-83
2021/11/14 04:00:38;;;;;;;95.05;41.55;;;;;;;5.41;93.44;101094.55;1621803;85;25891;-84
2021/11/14 04:03:05;;;;;;;88.15;40.95;;;;;;;5.41;93.36;101096.37;1662395;86;27483;-83
2021/11/14 04:05:33;;;;;;;90.70;39.70;;;;;;;5.40;93.40;101102.19;1619128;85;26012;-84
2021/11/14 04:08:01;;;;;;;90.87;41.18;;;;;;;5.39;93.37;101100.98;1659705;86;26538;-84
2021/11/14 04:10:29;;;;;;;90.60;41.90;;;;;;;5.39;93.49;101103.64;1629071;86;26787;-84
2021/11/14 04:12:56;;;;;;;92.85;43.95;;;;;;;5.41;93.55;101098.54;1645897;85;25402;-83
2021/11/14 04:15:23;;;;;;;88.55;43.23;;;;;;;5.45;93.59;101101.26;1615742;85;27230;-83
2021/11/14 04:17:56;;;;;;;99.10;44.30;;;;;;;5.51;93.57;101107.00;1658010;86;25766;-84
2021/11/14 04:20:19;;;;;;;86.40;40.70;;;;;;;5.53;93.54;101109.86;1654478;85;25890;-83
2021/11/14 04:22:46;;;;;;;99.13;44.77;;;;;;;5.56;93.51;101112.73;1649494;85;26709;-84
2021/11/14 04:25:13;;;;;;;85.25;40.38;;;;;;;5.59;93.46;101109.30;1633395;84;25374;-83
2021/11/14 04:27:40;;;;;;;93.33;43.00;;;;;;;5.62;93.30;101117.48;1668976;84;27465;-83
2021/11/14 04:30:09;;;;;;;95.87;43.95;;;;;;;5.63;93.21;101118.66;1631617;84;43795;-84
2021/11/14 04:32:36;;;;;;;95.67;43.55;;;;;;;5.65;93.20;101118.50;1634793;84;25365;-83
2021/11/14 04:35:05;;;;;;;88.92;42.23;;;;;;;5.65;93.11;101118.02;1649131;85;26519;-84
2021/11/14 04:37:32;;;;;;;96.17;43.17;;;;;;;5.66;93.10;101116.20;1679986;84;25805;-84
2021/11/14 04:39:59;;;;;;;100.55;43.65;;;;;;;5.69;93.07;101122.06;1676900;84;27688;-83
2021/11/14 04:42:26;;;;;;;93.60;42.53;;;;;;;5.72;93.06;101124.94;1634676;84;25807;-83
2021/11/14 04:44:53;;;;;;;91.28;43.50;;;;;;;5.74;93.02;101127.80;1670442;84;26005;-83
2021/11/14 04:47:20;;;;;;;102.25;43.28;;;;;;;5.74;92.98;101126.47;1671560;84;26636;-83
2021/11/14 04:49:47;;;;;;;97.70;44.25;;;;;;;5.75;92.95;101123.33;1677531;84;25803;-83
2021/11/14 04:52:14;;;;;;;96.20;42.88;;;;;;;5.77;92.98;101129.34;1619957;86;27575;-84
2021/11/14 04:54:41;;;;;;;100.60;44.95;;;;;;;5.78;93.02;101138.98;1604708;84;25832;-83
2021/11/14 04:57:08;;;;;;;94.90;42.98;;;;;;;5.78;92.98;101141.15;1662520;85;25792;-84
2021/11/14 04:59:36;;;;;;;103.85;43.55;;;;;;;5.80;93.01;101142.33;1632877;86;26316;-83
2021/11/14 05:02:04;;;;;;;101.65;44.30;;;;;;;5.82;93.01;101144.35;1627074;85;25998;-83
2021/11/14 05:04:31;;;;;;;101.60;41.50;;;;;;;5.80;92.92;101144.50;1638738;86;28338;-84
2021/11/14 05:06:58;;;;;;;103.85;43.83;;;;;;;5.80;92.96;101143.17;1616717;85;26419;-83
2021/11/14 05:09:25;;;;;;;103.35;44.20;;;;;;;5.80;92.98;101147.16;1624256;85;26052;-83
2021/11/14 05:11:52;;;;;;;102.07;42.55;;;;;;;5.82;93.01;101151.00;1618467;85;25453;-84
2021/11/14 05:14:19;;;;;;;99.03;44.18;;;;;;;5.82;93.01;101152.33;1671237;85;26097;-85
2021/11/14 05:16:46;;;;;;;98.80;42.80;;;;;;;5.82;93.03;101157.64;1669885;84;28330;-84
2021/11/14 05:19:13;;;;;;;107.35;46.23;;;;;;;5.83;93.06;101162.84;1644705;84;25895;-83
2021/11/14 05:21:40;;;;;;;101.58;42.33;;;;;;;5.84;93.02;101168.52;1610941;84;26542;-84
2021/11/14 05:24:08;;;;;;;106.85;43.52;;;;;;;5.85;93.06;101168.03;1674857;84;25885;-84
2021/11/14 05:26:35;;;;;;;100.97;45.00;;;;;;;5.83;93.05;101175.28;1675314;84;25794;-83
2021/11/14 05:29:03;;;;;;;96.63;42.55;;;;;;;5.81;93.05;101174.59;1618981;85;27479;-83
2021/11/14 05:31:30;;;;;;;109.27;43.70;;;;;;;5.79;93.18;101180.06;1636129;85;26437;-83
2021/11/14 05:33:57;;;;;;;113.10;45.48;;;;;;;5.79;93.21;101175.22;1665483;84;25846;-84
2021/11/14 05:36:25;;;;;;;93.65;41.50;;;;;;;5.78;93.26;101175.70;1654545;84;26573;-83
2021/11/14 05:38:52;;;;;;;107.65;44.55;;;;;;;5.77;93.25;101177.19;1612742;85;25850;-83
2021/11/14 05:41:20;;;;;;;98.95;42.95;;;;;;;5.78;93.35;101181.50;1659368;84;27492;-83
2021/11/14 05:43:47;;;;;;;113.50;47.23;;;;;;;5.79;93.42;101179.21;1648427;85;25998;-84
2021/11/14 05:46:14;;;;;;;107.70;47.50;;;;;;;5.81;93.52;101183.41;1641398;86;25921;-84
2021/11/14 05:48:41;;;;;;;119.10;47.50;;;;;;;5.83;93.52;101193.89;1626925;85;25866;-84
2021/11/14 05:51:08;;;;;;;108.85;47.40;;;;;;;5.85;93.55;101195.95;1623415;85;25894;-85
2021/11/14 05:53:35;;;;;;;114.75;47.35;;;;;;;5.84;93.53;101192.93;1665997;85;27580;-84
2021/11/14 05:56:03;;;;;;;109.00;49.33;;;;;;;5.86;93.61;101197.13;1647680;85;25828;-83
2021/11/14 05:58:44;;;;;;;112.77;46.98;;;;;;;5.87;93.51;101198.83;1640363;85;25864;-84
2021/11/14 06:01:17;;;;;;;113.52;46.70;;;;;;;5.85;93.45;101200.78;1653141;85;26431;-84
2021/11/14 06:03:57;;;;;;;113.42;46.42;;;;;;;5.86;93.55;101201.12;1632744;86;27043;-83
2021/11/14 06:06:14;;;;;;;105.83;44.20;;;;;;;5.88;93.59;101199.67;1660336;85;26786;-85
2021/11/14 06:08:41;;;;;;;111.45;46.15;;;;;;;5.88;93.55;101205.80;1600506;85;25359;-84
2021/11/14 06:11:08;;;;;;;112.50;47.45;;;;;;;5.89;93.62;101202.17;1617751;85;26596;-83
2021/11/14 06:13:35;;;;;;;104.30;45.48;;;;;;;5.93;93.62;101206.23;1665153;85;25893;-83
2021/11/14 06:16:02;;;;;;;99.22;44.05;;;;;;;5.94;93.65;101210.58;1651138;85;25911;-84
2021/11/14 06:18:29;;;;;;;98.12;42.90;;;;;;;5.98;93.59;101215.11;1612202;86;27494;-84
2021/11/14 06:21:00;;;;;;;106.07;42.62;;;;;;;5.97;93.58;101211.61;1641507;85;25834;-84
2021/11/14 06:23:28;;;;;;;107.03;46.20;;;;;;;6.01;93.59;101222.78;1672162;85;25833;-83
2021/11/14 06:25:55;;;;;;;93.35;41.55;;;;;;;6.02;93.59;101225.81;1670226;84;25886;-83
2021/11/14 06:28:22;;;;;;;104.87;44.70;;;;;;;6.03;93.56;101225.66;1614720;85;25907;-84
2021/11/14 06:30:49;;;;;;;106.32;44.13;;;;;;;6.03;93.52;101230.16;1622005;84;28279;-83
2021/11/14 06:33:16;;;;;;;107.03;47.20;;;;;;;6.04;93.51;101235.81;1675349;85;25920;-84
2021/11/14 06:35:43;;;;;;;104.12;43.68;;;;;;;6.04;93.50;101234.48;1665561;84;25904;-84
2021/11/14 06:38:10;;;;;;;106.75;44.73;;;;;;;6.05;93.43;101245.48;1619162;85;25901;-83
2021/11/14 06:40:38;;;;;;;96.15;43.63;;;;;;;6.03;93.43;101244.78;1629172;86;25501;-84
2021/11/14 06:43:05;;;;;;;98.87;43.78;;;;;;;6.04;93.47;101246.45;1650543;86;27663;-84
2021/11/14 06:45:32;;;;;;;99.40;44.05;;;;;;;6.02;93.48;101254.58;1631766;86;25771;-83
2021/11/14 06:47:59;;;;;;;102.47;43.40;;;;;;;6.04;93.52;101249.95;1594137;86;26628;-84
2021/11/14 06:50:26;;;;;;;104.25;44.70;;;;;;;6.05;93.56;101250.28;1620871;86;26454;-84
2021/11/14 06:52:53;;;;;;;96.53;44.18;;;;;;;6.09;93.63;101257.51;1658347;86;25733;-83
2021/11/14 06:55:21;;;;;;;100.02;44.15;;;;;;;6.09;93.55;101262.83;1618615;85;27336;-83
2021/11/14 06:57:48;;;;;;;100.78;42.78;;;;;;;6.10;93.59;101262.67;1625941;86;25868;-83
2021/11/14 07:00:20;;;;;;;101.00;44.73;;;;;;;6.11;93.57;101274.16;1628102;85;25969;-84
2021/11/14 07:02:47;;;;;;;99.03;41.92;;;;;;;6.13;93.63;101281.51;1663965;85;25792;-84
2021/11/14 07:05:15;;;;;;;98.67;44.35;;;;;;;6.15;93.64;101280.87;1651854;85;25826;-84
2021/11/14 07:07:43;;;;;;;105.10;43.13;;;;;;;6.15;93.52;101285.71;1616735;86;27606;-84
2021/11/14 07:10:13;;;;;;;108.50;45.35;;;;;;;6.15;93.61;101290.19;1632584;86;25407;-84
2021/11/14 07:12:41;;;;;;;96.90;43.57;;;;;;;6.16;93.59;101295.35;1636281;85;25830;-83
2021/11/14 07:15:13;;;;;;;102.45;45.03;;;;;;;6.16;93.54;101299.83;1650763;85;26025;-84
2021/11/14 07:17:40;;;;;;;107.83;44.15;;;;;;;6.14;93.46;101301.79;1642103;86;25953;-83
2021/11/14 07:20:10;;;;;;;100.85;43.45;;;;;;;6.13;93.57;101309.44;1663233;84;27712;-82
2021/11/14 07:22:37;;;;;;;93.45;45.35;;;;;;;6.14;93.61;101307.95;1659410;86;25789;-83
2021/11/14 07:25:05;;;;;;;101.97;43.83;;;;;;;6.14;93.60;101305.30;1652509;86;25965;-84
2021/11/14 07:27:33;;;;;;;94.22;43.17;;;;;;;6.14;93.60;101305.30;1619696;85;26511;-83
2021/11/14 07:30:00;;;;;;;100.87;45.63;;;;;;;6.16;93.55;101307.32;1657240;85;25809;-84
2021/11/14 07:32:27;;;;;;;101.42;43.05;;;;;;;6.18;93.54;101310.68;1660199;86;27602;-84
2021/11/14 07:34:54;;;;;;;98.25;43.55;;;;;;;6.19;93.47;101307.05;1657589;85;25994;-83
2021/11/14 07:37:21;;;;;;;110.68;45.35;;;;;;;6.18;93.54;101307.17;1644624;85;26097;-84
2021/11/14 07:39:48;;;;;;;101.62;43.25;;;;;;;6.17;93.37;101313.01;1677144;84;25827;-83
2021/11/14 07:42:15;;;;;;;96.10;42.27;;;;;;;6.16;93.39;101311.80;1664111;85;25863;-83
2021/11/14 07:44:42;;;;;;;103.17;45.30;;;;;;;6.15;93.38;101317.63;1646651;85;27466;-84
2021/11/14 07:47:09;;;;;;;104.45;45.38;;;;;;;6.16;93.52;101319.77;1628496;84;26060;-84
2021/11/14 07:49:36;;;;;;;96.80;44.77;;;;;;;6.17;93.66;101320.98;1631932;84;26558;-83
2021/11/14 07:52:03;;;;;;;98.55;44.58;;;;;;;6.19;93.62;101330.99;1664661;84;26613;-83
2021/11/14 07:54:30;;;;;;;101.07;44.73;;;;;;;6.20;93.66;101331.33;1660680;84;25978;-84
2021/11/14 07:56:57;;;;;;;99.05;42.75;;;;;;;6.18;93.61;101339.94;1633520;84;27035;-84
2021/11/14 07:59:24;;;;;;;91.97;43.15;;;;;;;6.19;93.57;101340.78;1614284;86;26038;-84
2021/11/14 08:01:51;;;;;;;103.80;46.23;;;;;;;6.15;93.50;101337.58;1663901;85;25322;-83
2021/11/14 08:04:18;;;;;;;106.60;44.50;;;;;;;6.12;93.62;101340.51;1643868;85;25943;-83
2021/11/14 08:06:45;;;;;;;99.77;44.38;;;;;;;6.11;93.78;101344.64;1610008;85;25856;-83
2021/11/14 08:09:12;;;;;;;106.47;45.75;;;;;;;6.13;93.91;101340.02;1616941;86;28281;-84
2021/11/14 08:11:40;;;;;;;105.30;46.08;;;;;;;6.13;93.82;101348.00;1658520;85;25884;-83
2021/11/14 08:14:07;;;;;;;109.10;46.73;;;;;;;6.14;93.94;101350.52;1634042;85;25911;-84
2021/11/14 08:16:34;;;;;;;103.58;44.38;;;;;;;6.17;94.00;101348.92;1627963;86;26075;-84
2021/11/14 08:19:01;;;;;;;106.95;44.20;;;;;;;6.14;93.87;101351.00;1645867;86;25881;-83
2021/11/14 08:21:28;;;;;;;107.83;45.23;;;;;;;6.09;93.79;101355.91;1660151;85;28558;-84
2021/11/14 08:23:55;;;;;;;102.82;44.48;;;;;;;6.07;93.99;101356.03;1649518;86;25401;-83
2021/11/14 08:26:22;;;;;;;101.18;41.92;;;;;;;6.06;94.12;101359.69;1593542;86;26021;-82
2021/11/14 08:28:49;;;;;;;104.07;43.80;;;;;;;6.05;93.99;101369.14;1611810;85;26478;-85
2021/11/14 08:31:20;;;;;;;108.27;42.78;;;;;;;6.02;94.06;101372.06;1670714;85;25334;-83
2021/11/14 08:33:45;;;;;;;106.05;41.13;;;;;;;6.01;94.12;101365.91;1659565;84;27394;-84
2021/11/14 08:36:12;;;;;;;103.17;38.73;;;;;;;6.00;94.16;101374.03;1631314;84;25939;-83
2021/11/14 08:38:39;;;;;;;106.60;43.23;;;;;;;5.98;94.13;101375.98;1670896;85;26473;-84
2021/11/14 08:41:07;;;;;;;101.53;44.48;;;;;;;5.91;94.15;101379.69;1669625;84;26576;-84
2021/11/14 08:43:36;;;;;;;103.75;45.25;;;;;;;5.89;94.22;101382.13;1629406;84;25909;-83
2021/11/14 08:46:03;;;;;;;96.95;42.85;;;;;;;5.87;94.32;101390.73;1638129;86;27339;-83
2021/11/14 08:48:30;;;;;;;110.48;44.55;;;;;;;5.87;94.44;101396.89;1658034;85;25829;-84
2021/11/14 08:50:57;;;;;;;112.45;45.75;;;;;;;5.85;94.35;101400.19;1677766;85;25842;-84
2021/11/14 08:53:24;;;;;;;107.17;47.23;;;;;;;5.83;94.34;101404.77;1632093;86;26361;-84
2021/11/14 08:55:55;;;;;;;104.75;46.02;;;;;;;5.82;94.32;101406.20;1635188;86;25847;-85
2021/11/14 08:58:24;;;;;;;108.65;45.80;;;;;;;5.79;94.27;101408.67;1657677;85;27474;-84
2021/11/14 09:00:53;;;;;;;112.52;46.40;;;;;;;5.79;94.38;101411.81;1641403;85;25855;-84
2021/11/14 09:03:20;;;;;;;107.78;47.15;;;;;;;5.78;94.28;101414.11;1610080;85;25894;-84
2021/11/14 09:05:48;;;;;;;107.80;47.70;;;;;;;5.78;94.42;101415.44;1636656;86;25872;-84
2021/11/14 09:08:15;;;;;;;106.52;45.58;;;;;;;5.76;94.13;101418.72;1661218;85;25350;-84
2021/11/14 09:10:44;;;;;;;114.88;47.55;;;;;;;5.73;94.18;101415.02;1668254;85;27601;-85
2021/11/14 09:13:13;;;;;;;102.42;45.48;;;;;;;5.73;94.39;101416.35;1612890;86;26695;-86
2021/11/14 09:15:40;;;;;;;110.60;46.02;;;;;;;5.74;94.33;101420.67;1628165;85;25955;-85
2021/11/14 09:18:07;;;;;;;113.72;48.35;;;;;;;5.74;94.40;101421.52;1659914;85;25909;-83
2021/11/14 09:20:34;;;;;;;108.37;48.75;;;;;;;5.76;94.72;101425.36;1663826;85;25342;-85
2021/11/14 09:23:02;;;;;;;108.47;49.55;;;;;;;5.78;94.60;101420.75;1591136;85;28192;-84
2021/11/14 09:25:30;;;;;;;111.62;48.52;;;;;;;5.78;94.49;101429.58;1607363;86;26684;-84
2021/11/14 09:27:57;;;;;;;113.80;48.10;;;;;;;5.80;94.41;101429.43;1672922;85;25393;-83
2021/11/14 09:30:24;;;;;;;106.70;48.60;;;;;;;5.75;94.08;101428.50;1671882;85;25927;-84
2021/11/14 09:32:51;;;;;;;109.20;48.05;;;;;;;5.69;94.11;101433.04;1623888;85;26243;-84
2021/11/14 09:35:18;;;;;;;109.57;46.58;;;;;;;5.66;94.26;101435.98;1615593;85;27608;-84
2021/11/14 09:37:45;;;;;;;105.43;48.80;;;;;;;5.63;94.15;101434.91;1659666;85;25803;-84
2021/11/14 09:40:13;;;;;;;105.12;46.70;;;;;;;5.64;94.39;101438.42;1663782;85;25825;-84
2021/11/14 09:42:42;;;;;;;107.45;48.00;;;;;;;5.65;94.41;101445.40;1626625;85;25907;-84
2021/11/14 09:45:11;;;;;;;113.15;49.77;;;;;;;5.66;94.39;101443.11;1623633;85;25824;-85
2021/11/14 09:47:39;;;;;;;117.62;49.60;;;;;;;5.67;94.28;101443.45;1677706;84;28165;-83
2021/11/14 09:50:08;;;;;;;116.90;49.48;;;;;;;5.68;94.27;101438.50;1659743;85;25865;-84
2021/11/14 09:52:38;;;;;;;112.92;50.05;;;;;;;5.69;94.35;101441.52;1635896;86;25823;-84
2021/11/14 09:55:09;;;;;;;107.55;46.50;;;;;;;5.72;94.43;101441.23;1627593;85;26060;-84
2021/11/14 09:57:37;;;;;;;;;;;;;;;5.74;94.36;101441.94;1672454;85;26384;-84
2021/11/14 10:00:08;;;;;;;107.22;47.95;;;;;;;5.73;94.34;101441.09;1634202;85;27563;-84
2021/11/14 10:02:42;;;;;;;107.20;49.85;;;;;;;5.73;94.51;101441.09;1638117;84;26019;-83
2021/11/14 10:05:12;;;;;;;115.15;48.95;;;;;;;5.71;94.19;101441.72;1643168;86;25953;-84
2021/11/14 10:07:41;;;;;;;107.95;46.85;;;;;;;5.72;94.30;101445.22;1672066;84;25889;-84
2021/11/14 10:10:11;;;;;;;112.40;49.23;;;;;;;5.72;94.06;101451.39;1624151;85;25911;-85
2021/11/14 10:12:38;;;;;;;105.52;49.25;;;;;;;5.73;93.99;101453.56;1654104;86;27478;-84
2021/11/14 10:15:13;;;;;;;100.50;47.53;;;;;;;5.73;93.99;101453.56;1646432;85;25757;-83
2021/11/14 10:17:48;;;;;;;104.32;47.17;;;;;;;5.71;94.03;101455.52;1672973;85;25809;-84
2021/11/14 10:20:26;;;;;;;109.37;49.35;;;;;;;5.68;94.02;101453.12;1650939;84;25919;-84
2021/11/14 10:23:01;;;;;;;108.12;47.13;;;;;;;5.67;93.92;101453.59;1665847;86;25806;-84
2021/11/14 10:25:30;;;;;;;106.07;50.08;;;;;;;5.66;93.94;101452.41;1641699;84;27459;-85
2021/11/14 10:28:03;;;;;;;107.45;48.35;;;;;;;5.64;93.83;101455.21;1671528;84;25874;-84
2021/11/14 10:30:36;;;;;;;112.50;48.55;;;;;;;5.65;93.39;101454.22;1637857;84;25831;-85
2021/11/14 10:33:07;;;;;;;108.42;47.45;;;;;;;5.70;93.46;101459.14;1669863;84;25851;-84
2021/11/14 10:35:37;;;;;;;107.00;46.53;;;;;;;5.75;93.08;101456.41;1610215;86;25873;-86
2021/11/14 10:38:08;;;;;;;114.00;49.25;;;;;;;5.78;92.86;101460.15;1665585;86;27628;-85
2021/11/14 10:40:40;;;;;;;105.32;46.90;;;;;;;5.82;92.78;101458.05;1631810;86;26467;-86
2021/11/14 10:43:07;;;;;;;106.70;48.58;;;;;;;5.85;92.81;101460.00;1659491;86;25700;-84
2021/11/14 10:45:39;;;;;;;109.95;47.62;;;;;;;5.92;92.93;101461.12;1634141;86;25606;-85
2021/11/14 10:48:13;;;;;;;106.03;49.15;;;;;;;5.97;92.61;101462.89;1679497;84;25783;-85
2021/11/14 10:50:45;;;;;;;108.50;48.40;;;;;;;6.01;92.58;101458.13;1649834;84;28198;-84
2021/11/14 10:53:17;;;;;;;106.00;46.65;;;;;;;6.07;92.54;101458.94;1644671;84;25934;-86
2021/11/14 10:55:52;;;;;;;105.07;47.38;;;;;;;6.11;92.37;101463.85;1610976;86;26495;-85
2021/11/14 10:58:22;;;;;;;104.30;45.98;;;;;;;6.14;92.20;101470.21;1656606;86;25920;-84
2021/11/14 11:00:53;;;;;;;105.07;47.62;;;;;;;6.17;91.92;101463.30;1649619;86;25875;-85
2021/11/14 11:03:20;;;;;;;100.05;46.77;;;;;;;6.17;91.73;101465.96;1645358;86;27534;-85
2021/11/14 11:05:49;;;;;;;108.95;47.15;;;;;;;6.17;91.51;101463.30;1647246;85;25867;-86
2021/11/14 11:08:22;;;;;;;106.25;46.63;;;;;;;6.18;91.70;101468.95;1681387;84;25752;-83
2021/11/14 11:11:03;;;;;;;100.82;46.88;;;;;;;6.19;91.44;101465.81;1631857;86;26498;-84
2021/11/14 11:13:46;;;;;;;99.52;45.50;;;;;;;6.18;91.37;101471.61;1633736;85;26018;-85
2021/11/14 11:16:18;;;;;;;103.47;46.77;;;;;;;6.20;91.24;101470.98;1661101;84;28257;-84
2021/11/14 11:18:59;;;;;;;105.05;47.00;;;;;;;6.21;91.38;101477.16;1640770;86;25957;-83